Pagrindinis puslapis
METAR-TAF:

METAR-TAF

Oro uostai :

Gamvik, Norvegija

platuma: 71-02N, ilguma: 027-50E, Aukštis: 1 m

Dabartinis oras

Ataskaita buvo paskelbta 20 valandos ir 2 minutes, ne 10:20 UTC
Vėjas 17 kt iš Šiaurės/Šiaurės Vakarų
Temperatūra -5°C
Drėgmė 79%
Slėgis 1003 hPa
Matomumas: 2000 m
sniegas

METAR: ENMH 091020Z 33017KT 2000 SN VV009 M05/M08 Q1003

Laikas: 08:22 (06:22 UTC)


TAF: trūkstamas

Orai ataskaitas ir orų prognozės (METAR, TAF).

turimą stotys yra geltonos ir raudonos taškus žemėlapyje.

Perkelti pele per norėdami pamatyti stoties vardą.

Tada spustelėkite, norėdami matyti oro stebėjimo ir prognozės.

Norėdami pakeisti žemėlapį: spustelėkite ant žalios mygtukų su juodo kryžiaus žemyn,; žalią mygtuką su brūkšneliu, jei norite nutolinti; arba žalių rodyklių gretimoms žemėlapius.


METAR-TAF: